createdAt,value
2023-06-04T00:03:43.279Z,8.63
2023-06-04T00:08:45.267Z,8.57
2023-06-04T00:13:47.049Z,8.38
2023-06-04T00:18:48.721Z,8.24
2023-06-04T00:23:50.654Z,8.13
2023-06-04T00:28:52.340Z,8.20
2023-06-04T00:33:54.095Z,8.16
2023-06-04T00:38:55.824Z,8.02
2023-06-04T00:43:57.707Z,7.84
2023-06-04T00:48:59.935Z,7.83
2023-06-04T00:54:09.817Z,7.75
2023-06-04T00:59:12.065Z,7.66
2023-06-04T01:04:22.067Z,7.68
2023-06-04T01:09:24.154Z,7.82
2023-06-04T01:14:27.048Z,7.63
2023-06-04T01:19:45.514Z,7.65
2023-06-04T01:24:54.109Z,7.51
2023-06-04T01:29:58.073Z,7.30
2023-06-04T01:35:00.632Z,7.34
2023-06-04T01:40:02.377Z,7.05
2023-06-04T01:45:04.545Z,7.15
2023-06-04T01:50:10.390Z,7.18
2023-06-04T01:55:15.462Z,7.11
2023-06-04T02:00:17.621Z,6.97
2023-06-04T02:05:19.567Z,7.03
2023-06-04T02:10:21.705Z,7.02
2023-06-04T02:15:24.831Z,6.90
2023-06-04T02:20:28.144Z,6.72
2023-06-04T02:25:30.158Z,6.69
2023-06-04T02:30:32.929Z,6.57
2023-06-04T02:35:34.586Z,6.45
2023-06-04T02:40:36.252Z,6.43
2023-06-04T02:45:37.988Z,6.41
2023-06-04T02:50:40.420Z,6.10
2023-06-04T02:55:42.918Z,5.95
2023-06-04T03:00:44.645Z,5.99
2023-06-04T03:05:47.461Z,6.18
2023-06-04T03:10:49.108Z,6.25
2023-06-04T03:15:50.802Z,6.15
2023-06-04T03:20:52.531Z,6.23
2023-06-04T03:25:54.215Z,6.22
2023-06-04T03:30:56.701Z,6.37
2023-06-04T03:36:00.912Z,6.60
2023-06-04T03:41:02.701Z,6.64
2023-06-04T03:46:04.506Z,6.69
2023-06-04T03:51:07.345Z,7.14
2023-06-04T03:56:09.879Z,8.97
2023-06-04T04:01:12.065Z,10.66
2023-06-04T04:06:13.866Z,11.09
2023-06-04T04:11:17.100Z,12.62
2023-06-04T04:16:19.056Z,11.85
2023-06-04T04:21:22.111Z,13.94
2023-06-04T04:26:28.577Z,11.44
2023-06-04T04:31:32.163Z,10.44
2023-06-04T04:36:36.088Z,9.18
2023-06-04T04:41:39.148Z,9.80
2023-06-04T04:46:41.290Z,10.75
2023-06-04T04:51:43.115Z,9.95
2023-06-04T04:56:45.128Z,11.43
2023-06-04T05:01:47.290Z,12.32
2023-06-04T05:06:49.175Z,11.82
2023-06-04T05:11:51.128Z,11.87
2023-06-04T05:16:53.016Z,10.95
2023-06-04T05:21:56.139Z,11.26
2023-06-04T05:26:58.440Z,11.39
2023-06-04T05:32:01.626Z,12.57
2023-06-04T05:37:05.660Z,12.12
2023-06-04T05:42:08.042Z,12.31
2023-06-04T05:47:10.603Z,12.33
2023-06-04T05:52:13.183Z,13.48
2023-06-04T05:57:17.022Z,13.03
2023-06-04T06:02:18.996Z,12.75
2023-06-04T06:07:21.241Z,13.45
2023-06-04T06:12:23.145Z,13.49
2023-06-04T06:17:25.242Z,14.07
2023-06-04T06:22:28.425Z,15.60
2023-06-04T06:27:30.338Z,15.83
2023-06-04T06:32:32.257Z,15.58
2023-06-04T06:37:33.986Z,16.02
2023-06-04T06:42:35.754Z,16.98
2023-06-04T06:47:37.432Z,19.40
2023-06-04T06:52:39.845Z,19.47
2023-06-04T06:57:41.668Z,22.67
2023-06-04T07:02:43.577Z,22.62
2023-06-04T07:07:45.453Z,22.64
2023-06-04T07:12:47.136Z,22.71
2023-06-04T07:17:49.466Z,22.82
2023-06-04T07:22:51.249Z,25.35
2023-06-04T07:27:52.945Z,29.44
2023-06-04T07:32:54.701Z,30.24
2023-06-04T07:37:56.396Z,30.12
2023-06-04T07:42:58.086Z,31.33
2023-06-04T07:47:59.876Z,31.45
2023-06-04T07:53:01.587Z,31.03
2023-06-04T07:58:05.351Z,33.35
2023-06-04T08:03:08.204Z,29.90
2023-06-04T08:08:10.006Z,28.01
2023-06-04T08:13:11.685Z,28.96
2023-06-04T08:18:13.353Z,29.28
2023-06-04T08:23:15.032Z,31.23
2023-06-04T08:28:16.999Z,33.74
2023-06-04T08:33:18.767Z,34.04
2023-06-04T08:38:20.609Z,33.55
2023-06-04T08:43:22.640Z,32.85
2023-06-04T08:48:25.963Z,30.37
2023-06-04T08:53:27.749Z,31.74
2023-06-04T08:58:34.319Z,31.25
2023-06-04T09:03:38.388Z,27.96
2023-06-04T09:08:43.961Z,26.82
2023-06-04T09:13:48.605Z,27.45
2023-06-04T09:18:50.906Z,31.24
2023-06-04T09:23:52.694Z,27.98
2023-06-04T09:28:56.532Z,27.93
2023-06-04T09:33:58.184Z,29.94
2023-06-04T09:39:00.169Z,31.23
2023-06-04T09:44:05.327Z,29.42
2023-06-04T09:49:07.428Z,32.93
2023-06-04T09:54:09.104Z,31.78
2023-06-04T09:59:11.300Z,28.48
2023-06-04T10:04:14.672Z,32.77
2023-06-04T10:09:17.469Z,34.13
2023-06-04T10:14:41.484Z,28.63
2023-06-04T10:19:45.063Z,31.14
2023-06-04T10:24:47.900Z,28.38
2023-06-04T10:29:51.410Z,29.42
2023-06-04T10:34:53.136Z,26.36
2023-06-04T10:39:56.604Z,32.27
2023-06-04T10:44:58.642Z,30.80
2023-06-04T10:50:12.600Z,29.91
2023-06-04T10:55:14.305Z,24.48
2023-06-04T11:00:17.582Z,25.67
2023-06-04T11:05:19.790Z,29.32
2023-06-04T11:10:33.898Z,28.96
2023-06-04T11:15:49.886Z,27.94
2023-06-04T11:21:00.950Z,30.31
2023-06-04T11:26:02.672Z,31.42
2023-06-04T11:31:05.025Z,29.67
2023-06-04T11:36:06.777Z,30.43
2023-06-04T11:41:08.603Z,30.17
2023-06-04T11:46:10.995Z,29.88
2023-06-04T11:51:14.029Z,30.46
2023-06-04T11:56:16.776Z,32.37
2023-06-04T12:01:19.238Z,28.80
2023-06-04T12:06:23.849Z,27.38
2023-06-04T12:11:35.739Z,29.57
2023-06-04T12:16:37.556Z,29.99
2023-06-04T12:21:43.206Z,30.08
2023-06-04T12:26:47.509Z,30.60
2023-06-04T12:31:51.151Z,29.14
2023-06-04T12:36:52.873Z,28.37
2023-06-04T12:41:54.547Z,27.84
2023-06-04T12:46:56.302Z,26.55
2023-06-04T12:51:58.428Z,27.72
2023-06-04T12:57:00.798Z,26.23
2023-06-04T13:02:02.825Z,26.71
2023-06-04T13:07:04.590Z,27.45
2023-06-04T13:12:07.252Z,26.52
2023-06-04T13:17:21.196Z,24.61
2023-06-04T13:22:24.059Z,25.46
2023-06-04T13:27:25.711Z,24.91
2023-06-04T13:32:27.453Z,24.58
2023-06-04T13:37:29.240Z,24.75
2023-06-04T13:42:31.018Z,24.70
2023-06-04T13:47:33.429Z,24.74
2023-06-04T13:52:35.225Z,24.04
2023-06-04T13:57:36.864Z,24.28
2023-06-04T14:02:38.665Z,24.92
2023-06-04T14:07:42.901Z,25.40
2023-06-04T14:12:45.263Z,25.03
2023-06-04T14:17:48.829Z,25.30
2023-06-04T14:22:50.587Z,25.63
2023-06-04T14:27:52.431Z,25.19
2023-06-04T14:32:54.152Z,25.08
2023-06-04T14:37:55.968Z,24.26
2023-06-04T14:42:58.667Z,24.44
2023-06-04T14:48:13.998Z,24.37
2023-06-04T14:53:16.873Z,23.21
2023-06-04T14:58:18.542Z,24.10
2023-06-04T15:03:20.364Z,23.52
2023-06-04T15:08:22.184Z,23.87
2023-06-04T15:13:23.919Z,23.74
2023-06-04T15:18:25.657Z,23.79
2023-06-04T15:23:27.411Z,23.58
2023-06-04T15:28:29.104Z,24.15
2023-06-04T15:33:30.838Z,24.31
2023-06-04T15:38:33.798Z,24.47
2023-06-04T15:43:35.521Z,23.97
2023-06-04T15:48:37.212Z,24.04
2023-06-04T15:53:38.945Z,23.78
2023-06-04T15:58:40.712Z,23.36
2023-06-04T16:03:42.520Z,23.52
2023-06-04T16:08:44.246Z,23.43
2023-06-04T16:13:46.177Z,23.32
2023-06-04T16:18:48.593Z,23.39
2023-06-04T16:23:50.258Z,23.56
2023-06-04T16:28:51.980Z,23.56
2023-06-04T16:33:53.750Z,23.63
2023-06-04T16:38:55.505Z,23.41
2023-06-04T16:43:57.199Z,23.26
2023-06-04T16:48:58.853Z,22.81
2023-06-04T16:59:02.124Z,22.76
2023-06-04T17:04:03.791Z,23.02
2023-06-04T17:09:05.490Z,22.93
2023-06-04T17:14:08.428Z,22.89
2023-06-04T17:19:10.105Z,22.85
2023-06-04T17:24:12.290Z,22.69
2023-06-04T17:29:14.102Z,22.42
2023-06-04T17:34:15.813Z,22.47
2023-06-04T17:39:17.536Z,22.28
2023-06-04T17:44:19.188Z,22.24
2023-06-04T17:49:21.000Z,22.12
2023-06-04T17:54:22.744Z,22.10
2023-06-04T17:59:24.419Z,21.86
2023-06-04T18:04:26.170Z,21.42
2023-06-04T18:09:28.127Z,21.26
2023-06-04T18:14:29.795Z,20.91
2023-06-04T18:19:31.576Z,20.67
2023-06-04T18:24:37.763Z,20.44
2023-06-04T18:29:41.133Z,20.36
2023-06-04T18:34:42.891Z,20.04
2023-06-04T18:39:44.631Z,19.78
2023-06-04T18:44:46.399Z,19.42
2023-06-04T18:49:48.121Z,19.10
2023-06-04T18:54:49.783Z,18.87
2023-06-04T18:59:51.495Z,18.71
2023-06-04T19:04:53.287Z,18.27
2023-06-04T19:09:55.296Z,17.98
2023-06-04T19:14:56.971Z,17.73
2023-06-04T19:19:58.627Z,17.56
2023-06-04T19:25:00.325Z,17.30
2023-06-04T19:30:03.369Z,17.10
2023-06-04T19:35:05.685Z,16.83
2023-06-04T19:40:08.146Z,16.55
2023-06-04T19:45:10.262Z,16.34
2023-06-04T19:50:12.382Z,15.87
2023-06-04T19:55:14.081Z,15.68
2023-06-04T20:00:16.389Z,15.52
2023-06-04T20:05:18.228Z,15.45
2023-06-04T20:10:19.944Z,15.17
2023-06-04T20:15:22.351Z,15.23
2023-06-04T20:20:24.038Z,14.92
2023-06-04T20:25:25.862Z,14.63
2023-06-04T20:30:27.547Z,14.45
2023-06-04T20:35:29.584Z,14.32
2023-06-04T20:40:31.240Z,14.17
2023-06-04T20:45:33.037Z,14.24
2023-06-04T20:50:34.716Z,14.22
2023-06-04T20:55:36.637Z,13.92
2023-06-04T21:00:38.277Z,13.60
2023-06-04T21:05:39.953Z,13.60
2023-06-04T21:10:41.717Z,13.51
2023-06-04T21:15:43.690Z,13.29
2023-06-04T21:20:45.438Z,13.16
2023-06-04T21:25:47.317Z,13.05
2023-06-04T21:30:49.044Z,12.99
2023-06-04T21:35:50.843Z,12.92
2023-06-04T21:40:52.511Z,13.14
2023-06-04T21:45:54.171Z,13.03
2023-06-04T21:50:56.370Z,13.06
2023-06-04T21:55:58.080Z,12.91
2023-06-04T22:00:59.758Z,12.87
2023-06-04T22:06:01.450Z,12.73
2023-06-04T22:11:03.152Z,12.75
2023-06-04T22:16:05.559Z,12.50
2023-06-04T22:21:07.356Z,12.20
2023-06-04T22:26:10.013Z,11.81
2023-06-04T22:31:13.822Z,11.66
2023-06-04T22:36:15.577Z,11.42
2023-06-04T22:41:17.247Z,11.38
2023-06-04T22:46:18.967Z,11.41
2023-06-04T22:51:22.205Z,11.32
2023-06-04T22:56:26.385Z,11.33
2023-06-04T23:01:28.225Z,11.43
2023-06-04T23:06:29.996Z,11.38
2023-06-04T23:11:31.664Z,11.25
2023-06-04T23:16:33.397Z,11.07
2023-06-04T23:21:35.329Z,10.93
2023-06-04T23:26:37.007Z,10.67
2023-06-04T23:31:38.726Z,10.52
2023-06-04T23:36:40.513Z,10.25
2023-06-04T23:41:42.211Z,10.28
2023-06-04T23:46:43.856Z,10.49
2023-06-04T23:51:45.521Z,10.22
2023-06-04T23:56:47.316Z,10.10
